This is the latest recevied weather packets stored in our database for station/object IW1RID-3. If no packets are shown the sender has not sent any weather packets the latest 10 day(s).
| Time | Temp. | Humidity | Pressure | Rain* | Wind** | Luminosity | Snow |
|---|---|---|---|---|---|---|---|
| 1777877373 | 15° C | 62% | 1075.7 hPa | - | - | - | - |
| 1777876169 | 14.44° C | 63% | 1075.4 hPa | - | - | - | - |
| 1777874963 | 13.89° C | 64% | 1075.1 hPa | - | - | - | - |
| 1777873758 | 13.89° C | 64% | 1075 hPa | - | - | - | - |
| 1777872553 | 13.89° C | 64% | 1074.9 hPa | - | - | - | - |
| 1777871348 | 13.33° C | 65% | 1075.1 hPa | - | - | - | - |
| 1777870144 | 12.78° C | 68% | 1075.1 hPa | - | - | - | - |
| 1777868939 | 13.33° C | 68% | 1075.2 hPa | - | - | - | - |
| 1777867733 | 13.33° C | 72% | 1075.4 hPa | - | - | - | - |
| 1777866529 | 12.78° C | 74% | 1075.4 hPa | - | - | - | - |
| 1777865325 | 13.33° C | 71% | 1075.4 hPa | - | - | - | - |
| 1777864120 | 13.33° C | 74% | 1075.2 hPa | - | - | - | - |
| 1777862914 | 13.33° C | 71% | 1075.3 hPa | - | - | - | - |
| 1777861710 | 13.33° C | 73% | 1075.4 hPa | - | - | - | - |
| 1777860504 | 13.33° C | 73% | 1075.5 hPa | - | - | - | - |
| 1777859299 | 13.33° C | 73% | 1075.3 hPa | - | - | - | - |
| 1777858094 | 13.89° C | 70% | 1075.4 hPa | - | - | - | - |
| 1777856889 | 13.33° C | 74% | 1075.6 hPa | - | - | - | - |
| 1777855685 | 13.89° C | 74% | 1075.7 hPa | - | - | - | - |
| 1777854479 | 13.89° C | 76% | 1075.9 hPa | - | - | - | - |
| 1777852069 | 13.89° C | 78% | 1076.3 hPa | - | - | - | - |
| 1777850862 | 13.89° C | 79% | 1076.3 hPa | - | - | - | - |
| 1777849657 | 13.89° C | 79% | 1076.4 hPa | - | - | - | - |
| 1777848451 | 14.44° C | 78% | 1076.6 hPa | - | - | - | - |
| 1777847246 | 14.44° C | 79% | 1076.4 hPa | - | - | - | - |
* Rain since midnight (hover to see other rain measurements)
** Current wind speed in m/s (hover to see current wind gust speed)